Time;durP1;ratioP1;P1;durP2;ratioP2;P2;SDS_P1;SDS_P2;PMS_P1;PMS_P2;Temp;Humidity;BMP_temperature;BMP_pressure;BME280_temperature;BME280_humidity;BME280_pressure;Samples;Min_cycle;Max_cycle;Signal;HPM_P1;HPM_P2
2023/06/21 00:01:21;;;;;;;7.95;5.32;;;;;;;25.29;72.77;95469.91;5008541;28;20203;-88
2023/06/21 00:03:48;;;;;;;8.23;5.43;;;;;;;25.17;72.85;95469.44;5009833;28;20203;-88
2023/06/21 00:06:14;;;;;;;8.38;5.18;;;;;;;24.88;73.62;95458.72;5010397;28;20310;-88
2023/06/21 00:08:41;;;;;;;6.68;5.00;;;;;;;24.73;74.88;95461.41;5009987;28;20190;-89
2023/06/21 00:11:07;;;;;;;7.47;5.32;;;;;;;24.70;74.03;95462.75;5010154;28;20223;-89
2023/06/21 00:13:35;;;;;;;7.75;5.40;;;;;;;24.67;73.87;95471.16;5010307;28;20696;-89
2023/06/21 00:16:07;;;;;;;10.88;5.63;;;;;;;24.72;74.71;95479.06;5011216;28;20238;-89
2023/06/21 00:18:36;;;;;;;8.50;5.40;;;;;;;24.75;74.57;95481.16;5014027;28;20211;-89
2023/06/21 00:21:02;;;;;;;8.07;5.70;;;;;;;24.70;74.11;95481.16;5009687;28;20226;-89
2023/06/21 00:23:29;;;;;;;6.72;5.30;;;;;;;24.67;74.01;95473.81;5009973;28;20286;-90
2023/06/21 00:25:55;;;;;;;7.10;5.40;;;;;;;24.61;75.03;95471.47;5009185;28;20221;-89
2023/06/21 00:28:22;;;;;;;6.82;5.90;;;;;;;24.51;75.90;95467.00;5004417;28;20202;-88
2023/06/21 00:30:48;;;;;;;7.20;5.57;;;;;;;24.50;74.90;95475.94;5009347;28;20207;-88
2023/06/21 00:33:16;;;;;;;7.97;5.75;;;;;;;24.56;73.87;95474.91;5008110;28;20210;-88
2023/06/21 00:35:43;;;;;;;8.18;6.13;;;;;;;24.37;75.38;95476.50;5014326;28;20269;-88
2023/06/21 00:38:12;;;;;;;6.82;6.13;;;;;;;24.41;75.03;95488.09;5009471;28;20684;-88
2023/06/21 00:40:38;;;;;;;8.40;6.03;;;;;;;24.43;74.19;95489.41;5008971;28;20202;-88
2023/06/21 00:43:05;;;;;;;7.78;5.90;;;;;;;24.45;74.45;95476.75;5009846;28;20210;-88
2023/06/21 00:45:38;;;;;;;6.78;6.05;;;;;;;24.45;74.58;95489.91;5009498;28;20301;-88
2023/06/21 00:48:04;;;;;;;9.27;6.50;;;;;;;24.53;74.51;95493.84;5022133;28;20206;-88
2023/06/21 00:50:32;;;;;;;8.50;6.07;;;;;;;24.51;75.32;95490.69;5012715;28;20648;-88
2023/06/21 00:52:59;;;;;;;7.75;6.00;;;;;;;24.49;74.58;95492.00;5009255;28;20230;-89
2023/06/21 00:55:26;;;;;;;9.15;6.28;;;;;;;24.48;74.62;95495.69;5009037;28;20202;-88
2023/06/21 00:57:52;;;;;;;9.52;6.13;;;;;;;24.49;75.78;95507.81;5009092;28;20258;-88
2023/06/21 01:00:21;;;;;;;7.53;5.85;;;;;;;24.48;75.52;95503.59;5009177;28;20203;-90
2023/06/21 01:02:48;;;;;;;8.80;6.10;;;;;;;24.54;75.68;95500.69;5009250;28;20198;-89
2023/06/21 01:05:16;;;;;;;7.35;6.00;;;;;;;24.56;74.84;95508.34;5009353;28;20202;-89
2023/06/21 01:07:55;;;;;;;8.43;6.25;;;;;;;24.54;75.97;95507.81;5011903;28;20221;-89
2023/06/21 01:10:30;;;;;;;8.63;6.60;;;;;;;24.50;77.16;95514.66;5009296;28;20190;-89
2023/06/21 01:13:10;;;;;;;8.95;6.45;;;;;;;24.41;77.37;95515.19;5019491;28;20217;-89
2023/06/21 01:15:43;;;;;;;8.02;6.43;;;;;;;24.38;76.62;95525.47;5019385;28;20201;-89
2023/06/21 01:18:13;;;;;;;10.57;6.60;;;;;;;24.35;76.99;95528.63;5022408;28;20206;-88
2023/06/21 01:20:41;;;;;;;6.88;5.95;;;;;;;24.36;76.41;95535.47;5017908;28;20570;-89
2023/06/21 01:23:23;;;;;;;10.15;6.60;;;;;;;24.40;76.72;95542.56;5011758;28;20206;-88
2023/06/21 01:26:06;;;;;;;10.35;6.43;;;;;;;24.40;76.43;95541.78;5008222;28;20261;-89
2023/06/21 01:28:45;;;;;;;9.23;6.93;;;;;;;24.23;78.11;95538.59;5012714;28;20249;-89
2023/06/21 01:31:15;;;;;;;8.05;6.20;;;;;;;24.24;78.02;95543.63;5008272;28;20207;-88
2023/06/21 01:33:42;;;;;;;8.32;6.40;;;;;;;24.24;77.47;95541.00;5009135;28;20235;-89
2023/06/21 01:36:10;;;;;;;8.35;6.70;;;;;;;24.08;79.84;95542.00;5008489;28;20225;-88
2023/06/21 01:38:36;;;;;;;9.57;7.00;;;;;;;23.88;80.92;95532.25;5005223;28;20194;-88
2023/06/21 01:41:03;;;;;;;10.40;6.63;;;;;;;23.63;83.26;95538.28;5008325;28;20218;-89
2023/06/21 01:43:30;;;;;;;7.07;6.20;;;;;;;23.81;81.30;95537.00;5008471;28;20553;-88
2023/06/21 01:45:59;;;;;;;7.25;6.55;;;;;;;23.85;80.95;95538.06;5008172;28;20234;-88
2023/06/21 01:48:27;;;;;;;10.07;6.60;;;;;;;23.84;80.62;95536.47;5021993;28;20205;-89
2023/06/21 01:50:54;;;;;;;6.85;6.03;;;;;;;23.85;80.39;95543.31;5028463;28;20249;-88
2023/06/21 01:53:21;;;;;;;9.15;6.10;;;;;;;23.96;79.94;95544.91;5022152;28;20215;-89
2023/06/21 01:55:51;;;;;;;9.95;6.55;;;;;;;23.98;80.38;95542.00;5005633;28;20664;-88
2023/06/21 01:58:18;;;;;;;7.03;6.30;;;;;;;24.02;79.36;95554.38;5017115;28;20201;-88
2023/06/21 02:00:45;;;;;;;8.13;6.65;;;;;;;24.08;78.61;95549.88;5030924;28;20207;-88
2023/06/21 02:03:15;;;;;;;7.55;5.82;;;;;;;24.13;78.79;95549.09;5032509;28;20248;-88
2023/06/21 02:05:44;;;;;;;11.60;6.25;;;;;;;24.08;78.58;95552.53;5015722;28;20562;-89
2023/06/21 02:08:16;;;;;;;6.90;6.20;;;;;;;24.03;78.08;95550.69;5022992;28;20198;-88
2023/06/21 02:10:42;;;;;;;10.40;6.93;;;;;;;24.01;77.66;95559.91;5023096;28;20930;-88
2023/06/21 02:13:10;;;;;;;6.97;6.10;;;;;;;23.97;78.72;95567.50;5011853;28;20223;-89
2023/06/21 02:15:38;;;;;;;8.85;6.90;;;;;;;23.96;77.65;95571.19;5011900;28;20202;-89
2023/06/21 02:18:05;;;;;;;8.52;6.32;;;;;;;23.90;77.74;95569.59;5009987;28;20202;-89
2023/06/21 02:20:31;;;;;;;7.07;5.85;;;;;;;23.92;78.02;95564.88;5012208;28;20672;-89
2023/06/21 02:22:59;;;;;;;9.45;6.80;;;;;;;23.90;77.75;95569.59;4993370;28;20196;-89
2023/06/21 02:25:26;;;;;;;10.80;6.55;;;;;;;23.98;77.09;95563.84;5007912;28;20551;-88
2023/06/21 02:27:52;;;;;;;9.13;6.10;;;;;;;23.96;77.97;95562.50;5010113;28;20215;-89
2023/06/21 02:30:19;;;;;;;7.20;6.32;;;;;;;24.02;77.97;95580.69;5016449;28;20210;-89
2023/06/21 02:32:45;;;;;;;7.78;6.03;;;;;;;24.06;77.49;95573.03;5031026;28;20222;-88
2023/06/21 02:35:12;;;;;;;6.10;5.50;;;;;;;24.10;76.99;95563.56;5031896;28;20567;-88
2023/06/21 02:37:39;;;;;;;7.28;5.78;;;;;;;24.18;76.81;95559.66;5031721;28;20222;-88
2023/06/21 02:40:10;;;;;;;7.28;5.82;;;;;;;24.11;77.27;95567.78;5031836;28;20209;-88
2023/06/21 02:42:37;;;;;;;9.10;5.70;;;;;;;24.11;76.82;95560.69;5011811;28;20288;-89
2023/06/21 02:45:04;;;;;;;10.25;5.72;;;;;;;24.13;76.43;95567.53;5007427;28;20229;-88
2023/06/21 02:47:31;;;;;;;6.63;5.70;;;;;;;24.08;76.79;95573.56;5012048;28;20248;-89
2023/06/21 02:50:00;;;;;;;9.40;5.72;;;;;;;24.06;75.95;95580.94;5012173;28;20203;-89
2023/06/21 02:52:27;;;;;;;8.95;6.10;;;;;;;23.97;75.87;95587.78;5028443;28;20240;-88
2023/06/21 02:54:53;;;;;;;7.63;5.63;;;;;;;23.91;76.79;95578.28;5031732;28;20228;-90
2023/06/21 02:57:21;;;;;;;8.45;6.03;;;;;;;23.83;76.80;95578.81;5031608;28;20254;-88
2023/06/21 02:59:49;;;;;;;8.52;5.45;;;;;;;23.84;76.36;95586.44;5016792;28;20210;-89
2023/06/21 03:02:16;;;;;;;6.15;5.55;;;;;;;23.81;76.71;95584.31;5025899;28;20210;-88
2023/06/21 03:04:45;;;;;;;11.15;6.50;;;;;;;23.74;77.45;95591.66;5031611;28;20206;-88
2023/06/21 03:07:11;;;;;;;10.77;6.30;;;;;;;23.50;79.29;95590.47;5030955;28;20229;-88
2023/06/21 03:09:38;;;;;;;8.20;6.00;;;;;;;23.50;79.19;95593.13;5031706;28;20686;-90
2023/06/21 03:12:07;;;;;;;8.23;6.15;;;;;;;23.43;80.65;95585.47;5017684;28;20899;-89
2023/06/21 03:14:37;;;;;;;6.90;6.05;;;;;;;23.27;81.47;95582.00;5009610;28;20203;-88
2023/06/21 03:17:04;;;;;;;10.77;6.53;;;;;;;23.27;81.41;95586.47;5010546;28;20249;-88
2023/06/21 03:19:30;;;;;;;6.97;6.22;;;;;;;23.21;82.82;95590.09;5011778;28;20269;-89
2023/06/21 03:21:57;;;;;;;7.22;5.85;;;;;;;23.29;81.60;95590.41;5011514;28;20215;-88
2023/06/21 03:24:26;;;;;;;9.18;5.93;;;;;;;23.41;79.99;95593.63;5011497;28;20214;-88
2023/06/21 03:26:53;;;;;;;6.63;5.95;;;;;;;23.44;79.79;95594.94;5001103;28;20383;-88
2023/06/21 03:29:19;;;;;;;9.38;6.00;;;;;;;23.49;78.88;95600.19;4992025;28;20588;-88
2023/06/21 03:31:47;;;;;;;7.82;6.13;;;;;;;23.51;78.37;95600.75;5009103;28;20199;-89
2023/06/21 03:34:14;;;;;;;9.82;6.22;;;;;;;23.59;77.59;95610.00;5011257;28;20595;-88
2023/06/21 03:36:40;;;;;;;9.77;6.25;;;;;;;23.63;77.95;95611.88;5014385;28;20225;-89
2023/06/21 03:39:08;;;;;;;9.07;6.18;;;;;;;23.70;77.61;95619.50;5030584;28;20198;-89
2023/06/21 03:41:35;;;;;;;7.80;5.78;;;;;;;23.72;77.66;95625.31;5021465;28;20197;-89
2023/06/21 03:44:04;;;;;;;8.57;5.80;;;;;;;23.66;78.12;95626.34;5011225;28;20214;-88
2023/06/21 03:46:33;;;;;;;11.48;6.20;;;;;;;23.60;78.92;95622.91;5023877;28;20590;-90
2023/06/21 03:49:01;;;;;;;8.73;6.03;;;;;;;23.67;77.99;95626.06;5009017;28;20213;-88
2023/06/21 03:51:28;;;;;;;7.20;5.65;;;;;;;23.67;77.89;95636.59;5012498;28;20560;-88
2023/06/21 03:53:56;;;;;;;7.72;6.07;;;;;;;23.73;77.06;95632.13;5011335;28;20223;-88
2023/06/21 03:56:28;;;;;;;9.10;5.88;;;;;;;23.73;77.13;95632.94;5023724;28;20313;-88
2023/06/21 03:58:54;;;;;;;9.43;5.70;;;;;;;23.64;77.99;95638.97;5031030;28;20277;-88
2023/06/21 04:01:22;;;;;;;6.82;5.90;;;;;;;23.56;78.52;95640.22;5028942;28;20671;-89
2023/06/21 04:03:49;;;;;;;9.45;5.30;;;;;;;23.60;78.86;95649.19;5019810;28;20218;-88
2023/06/21 04:06:16;;;;;;;9.32;5.38;;;;;;;23.63;77.99;95642.63;5003527;28;20317;-87
2023/06/21 04:08:43;;;;;;;7.25;5.70;;;;;;;23.64;77.00;95645.00;5011532;28;20202;-87
2023/06/21 04:11:09;;;;;;;13.45;6.47;;;;;;;23.63;76.57;95645.25;5014015;28;20195;-87
2023/06/21 04:13:36;;;;;;;10.90;5.93;;;;;;;23.70;75.69;95645.78;5011140;28;20632;-86
2023/06/21 04:16:02;;;;;;;8.48;6.50;;;;;;;23.64;76.18;95642.38;5011648;28;20226;-87
2023/06/21 04:18:29;;;;;;;8.57;6.45;;;;;;;23.60;76.28;95640.50;5012842;28;20205;-87
2023/06/21 04:20:55;;;;;;;8.63;6.13;;;;;;;23.56;76.91;95640.22;5014203;28;20599;-87
2023/06/21 04:23:26;;;;;;;10.20;5.75;;;;;;;23.58;76.13;95638.13;5010152;28;20675;-88
2023/06/21 04:25:52;;;;;;;8.02;6.13;;;;;;;23.53;75.78;95635.47;5010249;28;20199;-87
2023/06/21 04:28:25;;;;;;;7.22;5.60;;;;;;;23.59;75.36;95631.84;5011064;28;20222;-88
2023/06/21 04:30:55;;;;;;;7.72;5.80;;;;;;;23.66;75.38;95639.50;5010944;28;20626;-88
2023/06/21 04:33:23;;;;;;;8.27;6.25;;;;;;;23.72;74.91;95641.88;5030377;28;20264;-88
2023/06/21 04:35:49;;;;;;;7.20;5.78;;;;;;;23.78;74.33;95637.44;5019999;28;20200;-87
2023/06/21 04:38:19;;;;;;;7.43;6.43;;;;;;;23.82;73.41;95637.72;5001758;28;20212;-87
2023/06/21 04:40:47;;;;;;;8.98;6.00;;;;;;;23.80;73.19;95639.81;5014504;28;21076;-86
2023/06/21 04:43:13;;;;;;;9.05;6.20;;;;;;;23.79;72.92;95641.63;5011123;28;20209;-87
2023/06/21 04:45:42;;;;;;;11.00;6.35;;;;;;;23.75;73.40;95651.09;5009793;28;20187;-87
2023/06/21 04:48:08;;;;;;;13.10;6.38;;;;;;;23.76;73.00;95648.19;5011418;28;20621;-87
2023/06/21 04:50:45;;;;;;;8.30;6.05;;;;;;;23.85;72.55;95650.34;5013444;28;20198;-86
2023/06/21 04:53:12;;;;;;;9.50;6.22;;;;;;;23.90;72.52;95652.97;5005667;28;20254;-87
2023/06/21 04:55:42;;;;;;;8.32;6.65;;;;;;;23.97;71.67;95650.91;5009896;28;20201;-87
2023/06/21 04:58:12;;;;;;;8.40;6.20;;;;;;;23.94;70.87;95654.84;5006758;28;20684;-87
2023/06/21 05:00:39;;;;;;;9.75;6.88;;;;;;;23.96;70.51;95654.56;5010849;28;20268;-87
2023/06/21 05:03:08;;;;;;;12.20;7.13;;;;;;;24.00;70.39;95648.53;5010559;28;20277;-87
2023/06/21 05:05:35;;;;;;;8.57;6.90;;;;;;;24.08;69.92;95655.13;5009182;28;20210;-88
2023/06/21 05:08:02;;;;;;;11.65;6.80;;;;;;;24.13;70.14;95663.03;5010132;28;20230;-88
2023/06/21 05:10:28;;;;;;;8.50;6.53;;;;;;;24.15;69.40;95658.31;5009117;28;20273;-88
2023/06/21 05:12:54;;;;;;;9.52;6.80;;;;;;;24.18;69.38;95665.69;5010063;28;20227;-88
2023/06/21 05:15:29;;;;;;;9.88;6.78;;;;;;;24.23;69.66;95662.28;5010349;28;20202;-88
2023/06/21 05:17:55;;;;;;;7.65;6.35;;;;;;;24.30;69.58;95665.47;5009322;28;20698;-88
2023/06/21 05:20:22;;;;;;;10.70;6.95;;;;;;;24.31;69.34;95675.72;5018136;28;20202;-88
2023/06/21 05:22:48;;;;;;;9.55;8.30;;;;;;;24.42;68.83;95674.72;5009447;28;20215;-88
2023/06/21 05:25:15;;;;;;;15.50;13.43;;;;;;;24.42;68.85;95679.97;5009880;28;20213;-88
2023/06/21 05:27:41;;;;;;;10.18;8.98;;;;;;;24.53;68.75;95680.78;5012697;28;20225;-88
2023/06/21 05:30:08;;;;;;;13.30;7.07;;;;;;;24.59;68.48;95684.22;5022698;28;20198;-88
2023/06/21 05:32:40;;;;;;;10.95;6.40;;;;;;;24.70;67.29;95678.69;5029553;28;20205;-89
2023/06/21 05:35:07;;;;;;;9.80;6.22;;;;;;;24.79;67.22;95681.59;5025842;28;20687;-88
2023/06/21 05:37:33;;;;;;;7.75;6.15;;;;;;;24.87;66.66;95682.88;5014639;28;20222;-89
2023/06/21 05:40:02;;;;;;;11.32;6.70;;;;;;;24.92;66.31;95688.97;5018989;28;20295;-89
2023/06/21 05:42:28;;;;;;;8.95;6.50;;;;;;;25.02;65.04;95699.50;5009764;28;20210;-88
2023/06/21 05:44:55;;;;;;;10.90;6.63;;;;;;;25.08;64.64;95690.56;5017773;28;20205;-89
2023/06/21 05:47:21;;;;;;;8.65;6.47;;;;;;;25.20;64.74;95698.19;5010162;28;20580;-88
2023/06/21 05:49:49;;;;;;;10.68;6.20;;;;;;;25.29;63.83;95706.34;5008997;28;20209;-88
2023/06/21 05:52:28;;;;;;;11.25;6.88;;;;;;;25.29;63.15;95716.88;5009388;28;20209;-89
2023/06/21 05:54:55;;;;;;;7.63;5.60;;;;;;;25.43;62.95;95713.44;5009355;28;20787;-89
2023/06/21 05:57:29;;;;;;;9.32;6.18;;;;;;;25.65;63.13;95721.06;4999235;28;20219;-88
2023/06/21 05:59:56;;;;;;;10.38;6.70;;;;;;;25.85;62.45;95716.78;5010094;28;20198;-89
2023/06/21 06:02:22;;;;;;;9.52;6.32;;;;;;;25.92;62.76;95725.22;5029705;28;20202;-88
2023/06/21 06:04:50;;;;;;;9.50;6.13;;;;;;;25.91;62.06;95728.91;5019646;28;20221;-89
2023/06/21 06:07:19;;;;;;;15.68;13.15;;;;;;;25.91;62.58;95732.34;5008947;28;20245;-91
2023/06/21 06:09:45;;;;;;;14.23;10.00;;;;;;;25.95;61.83;95735.22;5011527;28;20261;-88
2023/06/21 06:12:12;;;;;;;10.60;6.47;;;;;;;25.97;62.07;95741.81;5022808;28;20294;-89
2023/06/21 06:14:38;;;;;;;11.55;6.47;;;;;;;26.05;61.78;95743.09;5007748;28;20311;-89
2023/06/21 06:17:05;;;;;;;7.82;5.20;;;;;;;26.12;61.77;95749.69;5009330;28;20230;-89
2023/06/21 06:19:32;;;;;;;12.60;6.00;;;;;;;26.10;61.23;95749.16;5009650;28;20206;-89
2023/06/21 06:21:59;;;;;;;11.70;6.47;;;;;;;26.11;60.55;95757.88;5008981;28;20680;-88
2023/06/21 06:24:27;;;;;;;7.68;6.00;;;;;;;26.12;61.27;95756.81;5009147;28;20203;-90
2023/06/21 06:26:57;;;;;;;7.15;5.68;;;;;;;26.08;60.89;95753.91;5004528;28;20428;-88
2023/06/21 06:29:23;;;;;;;11.05;6.15;;;;;;;26.08;60.88;95746.00;5005009;28;20207;-91
2023/06/21 06:31:52;;;;;;;10.65;6.13;;;;;;;26.12;60.46;95759.44;5008493;28;20281;-89
2023/06/21 06:34:18;;;;;;;8.63;5.93;;;;;;;26.21;60.06;95760.44;5014403;28;20222;-90
2023/06/21 06:36:47;;;;;;;11.68;5.63;;;;;;;26.31;60.48;95757.81;5029332;28;20313;-90
2023/06/21 06:39:18;;;;;;;6.45;5.80;;;;;;;26.39;59.69;95754.59;5032591;28;20216;-88
2023/06/21 06:41:45;;;;;;;12.90;6.45;;;;;;;26.49;60.41;95767.75;5020912;28;20197;-89
2023/06/21 06:44:14;;;;;;;13.82;6.80;;;;;;;26.53;61.30;95770.66;5017676;28;20198;-88
2023/06/21 06:46:40;;;;;;;9.75;6.28;;;;;;;26.59;61.72;95766.88;5011536;28;20222;-89
2023/06/21 06:49:07;;;;;;;9.80;6.10;;;;;;;26.66;61.15;95769.25;5012696;28;20715;-88
2023/06/21 06:51:35;;;;;;;9.07;5.80;;;;;;;26.70;60.64;95778.19;5012363;28;20209;-89
2023/06/21 06:54:07;;;;;;;8.25;6.47;;;;;;;26.77;60.82;95776.81;5019311;28;20218;-89
2023/06/21 06:56:34;;;;;;;27.08;24.27;;;;;;;26.85;60.74;95780.75;5019581;28;20222;-88
2023/06/21 06:59:01;;;;;;;12.93;9.25;;;;;;;26.94;60.25;95779.13;5011829;28;20198;-88
2023/06/21 07:01:28;;;;;;;7.50;6.47;;;;;;;26.94;59.13;95780.97;5005200;28;20626;-88
2023/06/21 07:04:00;;;;;;;6.40;5.60;;;;;;;26.97;58.24;95781.22;5011354;28;20650;-89
2023/06/21 07:06:31;;;;;;;11.00;6.28;;;;;;;26.89;58.96;95778.34;5010803;28;20884;-89
2023/06/21 07:08:57;;;;;;;10.98;6.03;;;;;;;26.83;57.79;95778.38;5021140;28;20215;-88
2023/06/21 07:14:18;;;;;;;6.30;5.43;;;;;;;27.07;58.21;95767.94;5013404;28;20619;-87
2023/06/21 07:16:49;;;;;;;7.22;6.10;;;;;;;27.12;57.12;95775.06;5009348;28;20242;-87
2023/06/21 07:19:16;;;;;;;9.27;5.22;;;;;;;27.13;56.75;95782.69;5018995;28;20209;-88
2023/06/21 07:21:42;;;;;;;7.20;5.78;;;;;;;27.15;58.00;95780.56;5015296;28;20201;-89
2023/06/21 07:24:08;;;;;;;8.02;5.85;;;;;;;27.16;58.08;95776.06;5030533;28;20190;-88
2023/06/21 07:26:35;;;;;;;8.32;5.97;;;;;;;27.24;58.13;95777.31;5013090;28;20219;-88
2023/06/21 07:29:01;;;;;;;8.32;5.57;;;;;;;27.33;57.83;95778.28;5003797;28;20207;-88
2023/06/21 07:31:31;;;;;;;10.02;5.85;;;;;;;27.37;58.00;95779.31;5001460;28;20206;-88
2023/06/21 07:33:57;;;;;;;9.38;5.57;;;;;;;27.41;57.29;95773.22;5010347;28;20241;-88
2023/06/21 07:36:24;;;;;;;10.00;5.57;;;;;;;27.42;56.51;95782.72;5019043;28;20299;-88
2023/06/21 07:38:50;;;;;;;10.18;5.50;;;;;;;27.48;55.65;95784.25;5015402;28;20734;-88
2023/06/21 07:41:17;;;;;;;10.15;9.07;;;;;;;27.48;55.78;95773.69;5017091;28;20218;-87
2023/06/21 07:43:44;;;;;;;13.10;9.77;;;;;;;27.52;55.25;95774.69;5029265;28;20201;-88
2023/06/21 07:46:10;;;;;;;9.15;5.55;;;;;;;27.58;54.70;95770.16;5020155;28;20225;-88
2023/06/21 07:48:38;;;;;;;8.50;5.43;;;;;;;27.66;54.54;95771.44;5007431;28;20703;-88
2023/06/21 07:51:05;;;;;;;8.27;4.88;;;;;;;27.77;53.70;95764.94;5020972;28;20198;-88
2023/06/21 07:53:31;;;;;;;9.15;5.35;;;;;;;27.71;53.60;95761.56;5025164;28;20225;-88
2023/06/21 07:56:00;;;;;;;7.28;5.45;;;;;;;27.90;53.83;95766.16;5024377;28;20290;-88
2023/06/21 07:58:26;;;;;;;11.05;5.53;;;;;;;28.03;53.42;95763.63;5009368;28;20484;-88
2023/06/21 08:00:53;;;;;;;11.05;5.60;;;;;;;28.08;53.09;95763.56;5012902;28;20198;-88
2023/06/21 08:03:19;;;;;;;8.95;5.30;;;;;;;28.13;52.80;95757.41;5009679;28;20277;-88
2023/06/21 08:05:49;;;;;;;8.35;5.40;;;;;;;28.21;52.88;95763.97;5015052;28;20657;-88
2023/06/21 08:08:17;;;;;;;9.82;5.30;;;;;;;28.33;52.73;95767.00;5009898;28;20201;-88
2023/06/21 08:10:44;;;;;;;7.93;5.10;;;;;;;28.30;49.71;95763.03;5011706;28;20225;-88
2023/06/21 08:13:10;;;;;;;9.55;5.28;;;;;;;28.34;51.08;95756.09;5010495;28;20195;-88
2023/06/21 08:15:37;;;;;;;14.18;6.10;;;;;;;28.44;50.45;95744.63;5010042;28;20214;-87
2023/06/21 08:18:03;;;;;;;8.98;5.70;;;;;;;28.52;51.10;95744.75;5013716;28;20229;-88
2023/06/21 08:20:29;;;;;;;26.88;24.08;;;;;;;28.64;49.98;95754.13;5009430;28;20195;-88
2023/06/21 08:22:57;;;;;;;9.73;5.88;;;;;;;28.65;49.93;95745.91;5009675;28;20203;-88
2023/06/21 08:25:24;;;;;;;8.60;5.70;;;;;;;28.73;49.80;95752.41;5016635;28;20197;-88
2023/06/21 08:27:50;;;;;;;8.32;5.55;;;;;;;28.87;49.51;95754.06;5001179;28;20309;-88
2023/06/21 08:30:19;;;;;;;7.40;4.88;;;;;;;29.02;49.45;95758.38;5015680;28;20194;-88
2023/06/21 08:32:45;;;;;;;9.02;5.10;;;;;;;29.19;49.25;95752.53;5030456;28;20552;-88
2023/06/21 08:35:12;;;;;;;7.47;5.30;;;;;;;29.30;48.30;95755.78;5017036;28;20431;-88
2023/06/21 08:37:41;;;;;;;11.88;5.68;;;;;;;29.36;48.43;95757.28;5001916;28;20215;-88
2023/06/21 08:40:10;;;;;;;8.05;5.55;;;;;;;29.35;47.52;95748.56;5010575;28;20199;-88
2023/06/21 08:42:36;;;;;;;7.65;5.97;;;;;;;29.25;47.07;95751.34;5028047;28;20197;-88
2023/06/21 08:45:03;;;;;;;9.20;5.72;;;;;;;29.26;46.73;95749.50;5030069;28;20226;-88
2023/06/21 08:47:33;;;;;;;10.15;5.90;;;;;;;29.25;47.11;95748.69;5006842;28;20215;-88
2023/06/21 08:50:00;;;;;;;9.98;5.68;;;;;;;29.31;46.08;95749.41;5009610;28;20203;-88
2023/06/21 08:52:36;;;;;;;7.97;5.22;;;;;;;29.34;46.69;95746.19;5010329;28;20194;-88
2023/06/21 08:55:09;;;;;;;10.65;5.47;;;;;;;29.43;46.98;95747.91;5002438;28;20224;-88
2023/06/21 08:57:42;;;;;;;10.10;5.70;;;;;;;29.75;46.86;95747.06;5027388;28;20224;-88
2023/06/21 09:00:13;;;;;;;9.38;5.63;;;;;;;29.91;46.35;95750.22;5027814;28;20207;-88
2023/06/21 09:02:52;;;;;;;8.80;5.53;;;;;;;29.75;44.53;95757.69;5021004;28;20198;-88
2023/06/21 09:05:26;;;;;;;8.75;5.43;;;;;;;29.65;44.78;95770.34;5011736;28;20202;-88
2023/06/21 09:07:56;;;;;;;7.32;5.22;;;;;;;29.62;44.51;95770.94;5008427;28;20230;-88
2023/06/21 09:10:34;;;;;;;9.45;5.82;;;;;;;29.73;44.89;95772.34;5017103;28;20214;-88
2023/06/21 09:13:04;;;;;;;9.15;5.25;;;;;;;29.86;45.38;95769.69;5025790;28;20195;-88
2023/06/21 09:15:30;;;;;;;7.07;5.80;;;;;;;30.08;44.64;95760.28;5011970;28;20221;-88
2023/06/21 09:20:48;;;;;;;8.93;5.50;;;;;;;30.48;44.74;95766.63;5001544;28;20688;-89
2023/06/21 09:23:14;;;;;;;7.93;4.95;;;;;;;30.71;44.51;95757.66;5007187;28;20261;-88
2023/06/21 09:25:44;;;;;;;8.75;5.68;;;;;;;30.74;44.10;95762.38;5008952;28;20207;-89
2023/06/21 09:28:13;;;;;;;6.93;5.25;;;;;;;30.85;44.10;95768.25;5008390;28;20903;-89
2023/06/21 09:30:41;;;;;;;6.95;5.38;;;;;;;30.92;44.47;95769.41;5008109;28;20205;-90
2023/06/21 09:33:08;;;;;;;11.45;6.30;;;;;;;30.98;42.66;95766.66;5006520;28;20199;-89
2023/06/21 09:35:38;;;;;;;8.07;5.25;;;;;;;30.90;43.16;95763.59;5004487;28;20253;-90
2023/06/21 09:38:20;;;;;;;6.22;5.30;;;;;;;30.96;42.05;95750.19;5003642;28;20219;-89
2023/06/21 09:40:47;;;;;;;8.80;5.90;;;;;;;31.02;41.80;95741.78;5002167;28;20209;-89
2023/06/21 09:43:17;;;;;;;8.70;5.70;;;;;;;31.16;42.09;95739.88;5006862;28;20230;-89
2023/06/21 09:45:58;;;;;;;8.13;5.32;;;;;;;31.31;43.03;95722.75;5008157;28;20225;-88
2023/06/21 09:48:41;;;;;;;10.65;5.75;;;;;;;31.38;41.62;95724.97;4993184;28;20260;-89
2023/06/21 09:51:12;;;;;;;9.43;6.00;;;;;;;31.31;42.49;95722.75;5005773;28;20215;-89
2023/06/21 09:53:47;;;;;;;8.95;5.57;;;;;;;31.56;42.45;95722.06;5012177;28;20624;-88
2023/06/21 09:56:22;;;;;;;8.25;5.70;;;;;;;31.46;42.29;95740.19;5004293;28;20222;-88
2023/06/21 09:58:52;;;;;;;9.38;5.40;;;;;;;31.15;42.10;95748.97;5000485;28;20194;-88
2023/06/21 10:01:23;;;;;;;8.50;5.80;;;;;;;30.79;42.50;95761.50;5026357;28;20237;-88
2023/06/21 10:03:50;;;;;;;9.70;5.32;;;;;;;30.53;44.36;95777.97;5010837;28;20194;-88
2023/06/21 10:06:17;;;;;;;7.13;5.60;;;;;;;30.40;44.92;95793.94;5006412;28;20214;-88
2023/06/21 10:08:44;;;;;;;6.82;6.00;;;;;;;30.22;44.61;95804.34;5006235;28;20871;-88
2023/06/21 10:11:27;;;;;;;7.38;5.88;;;;;;;30.05;45.54;95829.91;5006644;28;20199;-88
2023/06/21 10:13:55;;;;;;;6.68;5.55;;;;;;;29.94;45.92;95855.06;5009545;28;20289;-87
2023/06/21 10:16:23;;;;;;;8.43;5.93;;;;;;;29.81;45.56;95876.00;5011846;28;20223;-88
2023/06/21 10:18:52;;;;;;;9.68;6.60;;;;;;;29.80;45.75;95882.38;5013009;28;20213;-88
2023/06/21 10:21:23;;;;;;;15.63;11.85;;;;;;;29.77;46.70;95882.97;5013474;28;20203;-87
2023/06/21 10:23:58;;;;;;;9.40;7.03;;;;;;;29.66;47.24;95894.03;5013708;28;20214;-88
2023/06/21 10:26:27;;;;;;;8.98;5.82;;;;;;;29.70;46.96;95895.03;5010346;28;20218;-85
2023/06/21 10:28:57;;;;;;;10.93;6.32;;;;;;;29.63;46.91;95884.78;5014148;28;20269;-87
2023/06/21 10:31:25;;;;;;;8.20;5.47;;;;;;;29.54;46.20;95878.56;5015527;28;20206;-85
2023/06/21 10:33:55;;;;;;;8.52;6.47;;;;;;;29.40;46.71;95881.16;5010077;28;20580;-87
2023/06/21 10:36:32;;;;;;;10.90;5.88;;;;;;;29.37;47.40;95871.09;5016762;28;20218;-88
2023/06/21 10:39:04;;;;;;;6.40;5.78;;;;;;;29.37;47.92;95871.09;5010888;28;20198;-87
2023/06/21 10:41:31;;;;;;;7.07;5.88;;;;;;;29.51;47.28;95884.44;5015594;28;20226;-87
2023/06/21 10:44:00;;;;;;;8.65;5.75;;;;;;;29.58;47.39;95905.31;5011346;28;20206;-87
2023/06/21 10:46:26;;;;;;;9.77;5.20;;;;;;;29.41;45.94;95921.75;5010539;28;20219;-88
2023/06/21 10:48:55;;;;;;;14.95;5.28;;;;;;;29.11;44.19;95929.00;5009853;28;20710;-87
2023/06/21 10:51:22;;;;;;;15.25;4.50;;;;;;;28.81;43.47;95940.78;5012970;28;20212;-89
2023/06/21 10:53:52;;;;;;;21.58;14.27;;;;;;;28.55;44.33;95950.06;5012209;28;20203;-87
2023/06/21 10:56:19;;;;;;;12.95;5.03;;;;;;;28.17;44.84;95946.44;5014624;28;20241;-88
2023/06/21 10:58:47;;;;;;;13.57;4.80;;;;;;;27.98;45.14;95940.25;5010813;28;20210;-87
2023/06/21 11:01:15;;;;;;;16.45;4.60;;;;;;;27.92;45.59;95939.50;5013003;28;20206;-87
2023/06/21 11:03:51;;;;;;;18.80;5.05;;;;;;;28.00;45.12;95938.13;5008495;28;20203;-88
2023/06/21 11:06:28;;;;;;;12.52;5.22;;;;;;;28.18;45.87;95940.88;5004801;28;20214;-88
2023/06/21 11:08:56;;;;;;;10.32;4.53;;;;;;;28.24;44.86;95933.69;5009578;28;20202;-88
2023/06/21 11:11:30;;;;;;;18.05;5.40;;;;;;;28.29;44.73;95923.03;5010621;28;20199;-88
2023/06/21 11:13:57;;;;;;;14.88;4.85;;;;;;;28.34;45.14;95927.50;5013867;28;20233;-88
2023/06/21 11:16:42;;;;;;;15.88;5.57;;;;;;;28.38;44.86;95904.69;5017561;28;20226;-88
2023/06/21 11:19:10;;;;;;;16.58;6.70;;;;;;;28.43;45.08;95905.41;5017741;28;20204;-89
2023/06/21 11:21:45;;;;;;;13.00;5.80;;;;;;;28.54;44.30;95909.53;5018910;28;20257;-88
2023/06/21 11:24:15;;;;;;;13.25;4.90;;;;;;;28.76;44.56;95913.53;5022868;28;20419;-87
2023/06/21 11:26:58;;;;;;;13.02;4.78;;;;;;;28.71;43.88;95910.91;5027386;28;20214;-89
2023/06/21 11:29:40;;;;;;;13.32;4.63;;;;;;;28.73;44.42;95928.13;5028912;28;20256;-88
2023/06/21 11:32:12;;;;;;;16.73;4.90;;;;;;;28.89;44.05;95918.16;5010100;28;20608;-88
2023/06/21 11:34:53;;;;;;;12.93;5.00;;;;;;;28.94;43.71;95906.69;5005975;28;20202;-88
2023/06/21 11:37:31;;;;;;;12.63;5.22;;;;;;;28.98;44.31;95899.75;5012050;28;20718;-89
2023/06/21 11:39:59;;;;;;;10.15;4.70;;;;;;;29.00;44.35;95893.09;5029215;28;20249;-88
2023/06/21 11:42:27;;;;;;;11.25;4.43;;;;;;;29.15;44.41;95894.75;5019040;28;20199;-88
2023/06/21 11:44:54;;;;;;;9.60;4.65;;;;;;;29.20;44.08;95911.41;5018593;28;20201;-88